createdAt,value
2019-01-18T00:01:48.788Z,4.40
2019-01-18T00:05:52.219Z,4.40
2019-01-18T00:09:55.623Z,4.40
2019-01-18T00:13:59.050Z,4.30
2019-01-18T00:18:02.474Z,4.30
2019-01-18T00:22:05.967Z,4.30
2019-01-18T00:26:09.403Z,4.40
2019-01-18T00:30:19.038Z,4.50
2019-01-18T00:34:22.477Z,4.50
2019-01-18T00:38:25.902Z,4.50
2019-01-18T00:42:29.322Z,4.50
2019-01-18T00:46:32.782Z,4.50
2019-01-18T00:50:36.189Z,4.50
2019-01-18T00:54:39.614Z,4.30
2019-01-18T00:58:43.033Z,4.40
2019-01-18T01:02:46.537Z,4.30
2019-01-18T01:06:49.979Z,4.30
2019-01-18T01:10:53.409Z,4.30
2019-01-18T01:14:56.843Z,4.20
2019-01-18T01:19:00.261Z,4.20
2019-01-18T01:23:03.757Z,4.20
2019-01-18T01:27:07.208Z,4.20
2019-01-18T01:31:10.620Z,4.20
2019-01-18T01:35:14.124Z,4.20
2019-01-18T01:39:17.553Z,4.20
2019-01-18T01:43:20.980Z,4.20
2019-01-18T01:47:24.664Z,4.10
2019-01-18T01:51:28.092Z,4.00
2019-01-18T01:55:31.515Z,3.90
2019-01-18T01:59:35.212Z,3.80
2019-01-18T02:03:38.640Z,3.90
2019-01-18T02:07:42.053Z,3.80
2019-01-18T02:11:45.484Z,3.80
2019-01-18T02:15:48.916Z,3.70
2019-01-18T02:19:52.348Z,3.70
2019-01-18T02:23:55.785Z,3.60
2019-01-18T02:27:59.230Z,3.50
2019-01-18T02:32:02.658Z,3.50
2019-01-18T02:36:06.097Z,3.50
2019-01-18T02:40:11.937Z,3.40
2019-01-18T02:44:15.373Z,3.50
2019-01-18T02:48:18.783Z,3.40
2019-01-18T02:52:22.213Z,3.40
2019-01-18T02:56:25.644Z,3.40
2019-01-18T03:00:29.094Z,3.40
2019-01-18T03:04:32.528Z,3.40
2019-01-18T03:08:35.942Z,3.40
2019-01-18T03:12:39.441Z,3.40
2019-01-18T03:16:42.869Z,3.50
2019-01-18T03:20:46.304Z,3.40
2019-01-18T03:24:49.757Z,3.40
2019-01-18T03:28:54.668Z,3.40
2019-01-18T03:32:58.101Z,3.40
2019-01-18T03:37:01.531Z,3.40
2019-01-18T03:41:05.109Z,3.50
2019-01-18T03:45:14.502Z,3.50
2019-01-18T03:49:18.000Z,3.60
2019-01-18T03:53:21.620Z,3.70
2019-01-18T03:57:25.051Z,3.70
2019-01-18T04:01:28.476Z,3.80
2019-01-18T04:05:31.901Z,3.90
2019-01-18T04:09:35.344Z,3.90
2019-01-18T04:13:38.789Z,3.90
2019-01-18T04:17:42.206Z,3.80
2019-01-18T04:21:45.633Z,3.80
2019-01-18T04:25:49.055Z,3.80
2019-01-18T04:29:52.496Z,3.80
2019-01-18T04:33:56.042Z,3.80
2019-01-18T04:37:59.504Z,3.80
2019-01-18T04:42:02.923Z,3.70
2019-01-18T04:46:06.419Z,3.70
2019-01-18T04:50:15.064Z,3.60
2019-01-18T04:54:18.488Z,3.60
2019-01-18T04:58:21.976Z,3.60
2019-01-18T05:02:25.393Z,3.60
2019-01-18T05:06:28.833Z,3.60
2019-01-18T05:10:32.273Z,3.60
2019-01-18T05:14:35.721Z,3.70
2019-01-18T05:18:39.149Z,3.70
2019-01-18T05:22:42.561Z,3.70
2019-01-18T05:26:45.993Z,3.50
2019-01-18T05:30:49.422Z,3.60
2019-01-18T05:34:52.852Z,3.50
2019-01-18T05:38:56.270Z,3.40
2019-01-18T05:42:59.708Z,3.40
2019-01-18T05:47:03.139Z,3.40
2019-01-18T05:51:06.574Z,3.40
2019-01-18T05:55:10.680Z,3.40
2019-01-18T05:59:14.105Z,3.40
2019-01-18T06:03:17.536Z,3.40
2019-01-18T06:07:20.974Z,3.20
2019-01-18T06:11:24.570Z,3.10
2019-01-18T06:15:27.992Z,3.10
2019-01-18T06:19:31.419Z,3.20
2019-01-18T06:23:34.862Z,3.10
2019-01-18T06:27:38.305Z,3.00
2019-01-18T06:31:41.740Z,3.00
2019-01-18T06:35:45.166Z,2.90
2019-01-18T06:39:48.669Z,3.00
2019-01-18T06:43:52.871Z,3.00
2019-01-18T06:47:56.404Z,3.00
2019-01-18T06:51:59.844Z,3.00
2019-01-18T06:56:03.268Z,2.90
2019-01-18T07:00:09.797Z,3.00
2019-01-18T07:04:13.284Z,3.10
2019-01-18T07:08:16.719Z,3.10
2019-01-18T07:12:20.140Z,3.00
2019-01-18T07:16:23.574Z,3.00
2019-01-18T07:20:27.004Z,3.00
2019-01-18T07:24:30.433Z,3.00
2019-01-18T07:28:33.875Z,3.00
2019-01-18T07:32:37.284Z,3.00
2019-01-18T07:36:40.712Z,2.90
2019-01-18T07:40:44.140Z,3.00
2019-01-18T07:44:47.569Z,3.00
2019-01-18T07:48:51.012Z,3.00
2019-01-18T07:52:54.507Z,2.90
2019-01-18T07:56:57.960Z,3.00
2019-01-18T08:01:01.392Z,3.00
2019-01-18T08:05:07.480Z,3.10
2019-01-18T08:09:10.933Z,3.10
2019-01-18T08:13:14.348Z,3.20
2019-01-18T08:17:17.792Z,3.20
2019-01-18T08:21:21.228Z,3.30
2019-01-18T08:25:24.657Z,3.30
2019-01-18T08:29:28.100Z,3.40
2019-01-18T08:33:31.540Z,3.40
2019-01-18T08:37:34.972Z,3.40
2019-01-18T08:41:38.402Z,3.50
2019-01-18T08:45:44.781Z,3.60
2019-01-18T08:49:49.733Z,3.70
2019-01-18T08:53:53.163Z,3.70
2019-01-18T08:57:56.605Z,3.70
2019-01-18T09:02:00.057Z,3.80
2019-01-18T09:06:03.572Z,3.90
2019-01-18T09:10:12.952Z,4.00
2019-01-18T09:14:19.593Z,4.20
2019-01-18T09:18:21.532Z,4.30
2019-01-18T09:22:25.181Z,4.30
2019-01-18T09:26:28.612Z,4.30
2019-01-18T09:30:34.950Z,4.30
2019-01-18T09:34:38.361Z,4.50
2019-01-18T09:38:41.804Z,4.60
2019-01-18T09:42:45.323Z,4.70
2019-01-18T09:46:48.732Z,4.90
2019-01-18T09:50:52.164Z,5.00
2019-01-18T09:54:55.587Z,5.00
2019-01-18T09:58:59.016Z,5.00
2019-01-18T10:03:02.442Z,5.10
2019-01-18T10:07:05.861Z,5.20
2019-01-18T10:11:09.298Z,5.50
2019-01-18T10:15:15.556Z,5.60
2019-01-18T10:19:18.988Z,5.60
2019-01-18T10:23:22.476Z,5.60
2019-01-18T10:27:25.891Z,5.50
2019-01-18T10:31:29.330Z,5.50
2019-01-18T10:35:32.764Z,5.40
2019-01-18T10:39:36.285Z,5.30
2019-01-18T10:43:41.266Z,5.30
2019-01-18T10:47:45.020Z,5.10
2019-01-18T10:51:48.452Z,5.00
2019-01-18T10:55:51.884Z,5.20
2019-01-18T10:59:55.320Z,5.30
2019-01-18T11:03:58.749Z,5.40
2019-01-18T11:08:02.172Z,5.40
2019-01-18T11:12:05.683Z,5.30
2019-01-18T11:16:09.161Z,5.30
2019-01-18T11:20:24.500Z,5.40
2019-01-18T11:24:27.925Z,5.50
2019-01-18T11:28:31.360Z,5.40
2019-01-18T11:32:34.792Z,5.40
2019-01-18T11:36:38.224Z,5.50
2019-01-18T11:40:41.666Z,5.50
2019-01-18T11:44:45.060Z,5.50
2019-01-18T11:48:50.396Z,5.60
2019-01-18T11:52:53.648Z,5.80
2019-01-18T11:56:57.081Z,5.80
2019-01-18T12:01:00.513Z,5.80
2019-01-18T12:05:05.379Z,5.80
2019-01-18T12:09:08.872Z,5.70
2019-01-18T12:13:12.315Z,5.60
2019-01-18T12:17:15.749Z,5.70
2019-01-18T12:21:19.168Z,5.50
2019-01-18T12:25:22.588Z,5.40
2019-01-18T12:29:26.025Z,5.40
2019-01-18T12:33:29.457Z,5.30
2019-01-18T12:37:32.916Z,5.30
2019-01-18T12:41:36.327Z,5.40
2019-01-18T12:45:39.758Z,5.40
2019-01-18T12:49:43.185Z,5.60
2019-01-18T12:53:46.612Z,5.80
2019-01-18T12:57:50.058Z,6.00
2019-01-18T13:01:53.467Z,6.30
2019-01-18T13:05:56.892Z,6.60
2019-01-18T13:10:00.322Z,6.90
2019-01-18T13:14:05.281Z,7.00
2019-01-18T13:18:08.924Z,6.80
2019-01-18T13:22:12.340Z,6.80
2019-01-18T13:26:15.770Z,6.90
2019-01-18T13:30:19.850Z,7.00
2019-01-18T13:34:23.276Z,6.90
2019-01-18T13:38:26.724Z,6.90
2019-01-18T13:42:30.147Z,6.90
2019-01-18T13:46:33.657Z,6.80
2019-01-18T13:50:37.091Z,6.60
2019-01-18T13:54:40.522Z,6.50
2019-01-18T13:58:43.945Z,6.30
2019-01-18T14:02:48.573Z,6.40
2019-01-18T14:06:52.484Z,6.30
2019-01-18T14:10:55.986Z,6.40
2019-01-18T14:14:59.669Z,6.50
2019-01-18T14:19:03.088Z,6.40
2019-01-18T14:23:06.520Z,6.30
2019-01-18T14:27:09.943Z,6.30
2019-01-18T14:31:13.382Z,6.40
2019-01-18T14:35:16.884Z,6.50
2019-01-18T14:39:20.312Z,6.50
2019-01-18T14:43:23.744Z,6.50
2019-01-18T14:47:27.185Z,6.30
2019-01-18T14:51:30.616Z,6.10
2019-01-18T14:55:35.172Z,5.90
2019-01-18T14:59:38.599Z,5.80
2019-01-18T15:03:42.029Z,5.70
2019-01-18T15:07:45.468Z,5.70
2019-01-18T15:11:48.901Z,5.60
2019-01-18T15:15:52.333Z,5.50
2019-01-18T15:19:55.767Z,5.40
2019-01-18T15:23:59.188Z,5.40
2019-01-18T15:28:02.620Z,5.40
2019-01-18T15:32:06.058Z,5.30
2019-01-18T15:36:09.499Z,5.20
2019-01-18T15:40:19.018Z,5.20
2019-01-18T15:44:22.456Z,5.20
2019-01-18T15:48:25.884Z,5.00
2019-01-18T15:52:29.308Z,5.00
2019-01-18T15:56:32.741Z,5.00
2019-01-18T16:00:41.256Z,5.00
2019-01-18T16:04:44.685Z,4.90
2019-01-18T16:08:48.124Z,4.80
2019-01-18T16:12:51.691Z,5.00
2019-01-18T16:16:55.678Z,4.80
2019-01-18T16:20:59.120Z,4.70
2019-01-18T16:25:02.656Z,4.60
2019-01-18T16:29:06.138Z,4.50
2019-01-18T16:33:09.607Z,4.40
2019-01-18T16:37:13.042Z,4.30
2019-01-18T16:41:16.481Z,4.20
2019-01-18T16:45:19.985Z,4.10
2019-01-18T16:49:23.413Z,4.00
2019-01-18T16:53:26.847Z,3.90
2019-01-18T16:57:30.285Z,3.80
2019-01-18T17:01:33.716Z,3.70
2019-01-18T17:05:37.153Z,3.70
2019-01-18T17:09:40.591Z,3.60
2019-01-18T17:13:44.033Z,3.50
2019-01-18T17:17:47.477Z,3.40
2019-01-18T17:21:50.905Z,3.40
2019-01-18T17:25:55.261Z,3.30
2019-01-18T17:29:58.912Z,3.30
2019-01-18T17:34:02.428Z,3.10
2019-01-18T17:38:17.929Z,2.90
2019-01-18T17:42:27.108Z,2.80
2019-01-18T17:46:54.645Z,2.70
2019-01-18T17:51:23.764Z,2.60
2019-01-18T17:55:50.609Z,2.50
2019-01-18T18:00:16.395Z,2.50
2019-01-18T18:04:40.878Z,2.40
2019-01-18T18:09:02.780Z,2.50
2019-01-18T18:13:30.988Z,2.50
2019-01-18T18:17:40.372Z,2.40
2019-01-18T18:22:15.514Z,2.40
2019-01-18T18:26:33.939Z,2.40
2019-01-18T18:30:40.433Z,2.30
2019-01-18T18:34:58.710Z,2.30
2019-01-18T18:39:13.984Z,2.10
2019-01-18T18:43:41.636Z,2.10
2019-01-18T18:48:00.124Z,2.10
2019-01-18T18:52:23.255Z,2.10
2019-01-18T18:56:46.132Z,2.10
2019-01-18T19:01:01.345Z,2.00
2019-01-18T19:05:07.858Z,1.90
2019-01-18T19:09:31.664Z,1.90
2019-01-18T19:13:57.425Z,2.00
2019-01-18T19:18:30.789Z,2.00
2019-01-18T19:22:46.037Z,2.00
2019-01-18T19:27:15.101Z,1.90
2019-01-18T19:31:53.173Z,1.90
2019-01-18T19:35:59.680Z,1.90
2019-01-18T19:40:21.164Z,1.80
2019-01-18T19:44:27.677Z,1.70
2019-01-18T19:48:52.061Z,1.70
2019-01-18T19:53:01.209Z,1.70
2019-01-18T19:57:22.460Z,1.70
2019-01-18T20:01:34.978Z,1.80
2019-01-18T20:05:44.498Z,1.70
2019-01-18T20:10:11.920Z,1.70
2019-01-18T20:14:37.272Z,1.80
2019-01-18T20:18:55.315Z,1.80
2019-01-18T20:23:18.459Z,1.70
2019-01-18T20:27:27.838Z,1.70
2019-01-18T20:31:39.889Z,1.60
2019-01-18T20:36:04.447Z,1.60
2019-01-18T20:40:17.309Z,1.50
2019-01-18T20:44:38.601Z,1.40
2019-01-18T20:48:47.914Z,1.30
2019-01-18T20:52:57.152Z,1.20
2019-01-18T20:57:24.712Z,1.30
2019-01-18T21:02:04.395Z,1.30
2019-01-18T21:06:10.916Z,1.30
2019-01-18T21:10:20.116Z,1.20
2019-01-18T21:14:44.694Z,1.10
2019-01-18T21:18:53.874Z,1.10
2019-01-18T21:23:02.972Z,1.00
2019-01-18T21:27:26.132Z,1.10
2019-01-18T21:31:44.658Z,1.10
2019-01-18T21:36:03.333Z,1.10
2019-01-18T21:40:21.900Z,1.10
2019-01-18T21:44:40.195Z,1.00
2019-01-18T21:49:16.834Z,0.90
2019-01-18T21:53:29.353Z,1.00
2019-01-18T21:57:50.156Z,0.90
2019-01-18T22:02:08.509Z,0.90
2019-01-18T22:06:23.640Z,0.90
2019-01-18T22:10:52.884Z,0.90
2019-01-18T22:15:05.042Z,1.00
2019-01-18T22:19:14.109Z,0.90
2019-01-18T22:23:20.629Z,0.90
2019-01-18T22:27:43.652Z,0.90
2019-01-18T22:31:52.620Z,1.00
2019-01-18T22:36:17.216Z,0.90
2019-01-18T22:40:46.428Z,0.80
2019-01-18T22:45:27.613Z,0.80
2019-01-18T22:49:39.984Z,0.70
2019-01-18T22:53:49.184Z,0.80
2019-01-18T22:57:58.304Z,0.70
2019-01-18T23:02:27.643Z,0.70
2019-01-18T23:06:46.077Z,0.60
2019-01-18T23:10:58.539Z,0.60
2019-01-18T23:15:19.990Z,0.60
2019-01-18T23:19:32.053Z,0.60
2019-01-18T23:24:02.643Z,0.60
2019-01-18T23:28:42.168Z,0.60
2019-01-18T23:32:51.266Z,0.60
2019-01-18T23:36:57.783Z,0.60
2019-01-18T23:41:20.928Z,0.60
2019-01-18T23:45:39.331Z,0.50
2019-01-18T23:50:03.892Z,0.40
2019-01-18T23:54:22.179Z,0.40
2019-01-18T23:58:55.968Z,0.30
